Time;durP1;ratioP1;P1;durP2;ratioP2;P2;SDS_P1;SDS_P2;PMS_P1;PMS_P2;Temp;Humidity;BMP_temperature;BMP_pressure;BME280_temperature;BME280_humidity;BME280_pressure;Samples;Min_cycle;Max_cycle;Signal;HPM_P1;HPM_P2
2022/08/25 00:00:49;;;;;;;15.13;5.37;;;;;;;17.51;73.40;99803.44;1732599;81;20888;-68
2022/08/25 00:03:16;;;;;;;11.60;4.67;;;;;;;17.43;73.66;99801.63;1744327;80;21225;-68
2022/08/25 00:05:45;;;;;;;11.83;4.62;;;;;;;17.34;74.25;99802.37;1744149;81;21521;-67
2022/08/25 00:08:11;;;;;;;17.20;4.95;;;;;;;17.25;74.68;99798.98;1747612;81;21494;-68
2022/08/25 00:10:41;;;;;;;13.43;5.05;;;;;;;17.18;75.08;99795.42;1747131;81;20994;-67
2022/08/25 00:13:12;;;;;;;13.95;4.58;;;;;;;17.16;75.59;99809.65;1753192;81;20920;-67
2022/08/25 00:15:43;;;;;;;14.38;5.10;;;;;;;17.13;75.77;99803.42;1778015;80;21165;-67
2022/08/25 00:18:09;;;;;;;12.07;4.60;;;;;;;17.11;76.05;99802.97;1762156;79;21489;-67
2022/08/25 00:20:41;;;;;;;13.93;5.28;;;;;;;17.09;76.19;99805.28;1731832;80;21007;-67
2022/08/25 00:23:10;;;;;;;17.10;5.92;;;;;;;17.06;76.66;99809.34;1721760;82;21427;-67
2022/08/25 00:25:41;;;;;;;13.83;5.33;;;;;;;17.02;76.90;99809.82;1699600;82;20979;-67
2022/08/25 00:28:13;;;;;;;13.32;4.92;;;;;;;16.96;77.25;99809.84;1704370;82;21050;-67
2022/08/25 00:30:44;;;;;;;13.72;4.90;;;;;;;16.92;77.67;99811.13;1716666;82;21006;-67
2022/08/25 00:33:11;;;;;;;19.77;5.53;;;;;;;16.88;77.94;99813.56;1734912;81;21145;-67
2022/08/25 00:35:42;;;;;;;14.75;5.30;;;;;;;16.81;78.23;99816.93;1713619;80;20948;-67
2022/08/25 00:38:12;;;;;;;12.40;4.97;;;;;;;16.77;78.61;99814.62;1730956;81;20908;-67
2022/08/25 00:40:39;;;;;;;17.57;4.62;;;;;;;16.74;78.82;99813.98;1718528;81;21180;-68
2022/08/25 00:43:09;;;;;;;13.53;5.17;;;;;;;16.72;78.88;99815.71;1732772;81;20927;-67
2022/08/25 00:45:39;;;;;;;12.18;4.92;;;;;;;16.72;78.82;99814.91;1714686;83;21025;-66
2022/08/25 00:48:06;;;;;;;23.83;5.00;;;;;;;16.72;78.62;99814.91;1716051;82;21067;-66
2022/08/25 00:50:37;;;;;;;14.45;4.75;;;;;;;16.75;78.64;99816.97;1717164;81;20883;-67
2022/08/25 00:53:09;;;;;;;14.87;4.72;;;;;;;16.79;78.54;99817.28;1718381;82;21551;-67
2022/08/25 00:55:39;;;;;;;19.35;4.67;;;;;;;16.80;78.22;99808.38;1719708;82;20959;-67
2022/08/25 00:58:16;;;;;;;14.07;5.17;;;;;;;16.80;77.75;99807.00;1711048;82;20942;-68
2022/08/25 01:00:49;;;;;;;11.43;4.92;;;;;;;16.86;77.43;99801.44;1712165;82;20935;-68
2022/08/25 01:03:22;;;;;;;17.30;4.60;;;;;;;16.89;77.33;99804.89;1713461;82;20887;-68
2022/08/25 01:05:50;;;;;;;11.78;4.50;;;;;;;16.91;77.23;99799.80;1711218;83;22554;-68
2022/08/25 01:08:26;;;;;;;12.93;4.35;;;;;;;16.90;77.21;99799.58;1714156;82;21031;-68
2022/08/25 01:11:00;;;;;;;17.37;4.47;;;;;;;16.88;77.34;99797.73;1715608;82;20927;-69
2022/08/25 01:13:43;;;;;;;10.88;3.77;;;;;;;16.86;77.29;99794.50;1712295;83;21407;-68
2022/08/25 01:16:15;;;;;;;11.00;4.10;;;;;;;16.83;77.31;99791.86;1727241;80;20887;-67
2022/08/25 01:18:55;;;;;;;24.82;5.78;;;;;;;16.81;77.35;99791.40;1717023;82;21540;-68
2022/08/25 01:21:31;;;;;;;14.30;3.87;;;;;;;16.78;77.34;99789.91;1731716;82;20974;-67
2022/08/25 01:24:05;;;;;;;10.53;4.28;;;;;;;16.75;77.37;99792.80;1714963;82;21620;-68
2022/08/25 01:26:35;;;;;;;14.17;4.10;;;;;;;16.74;77.33;99783.48;1689096;83;21034;-68
2022/08/25 01:29:24;;;;;;;13.40;4.30;;;;;;;16.73;77.20;99791.56;1723176;82;21362;-68
2022/08/25 01:32:00;;;;;;;12.53;4.10;;;;;;;16.71;77.14;99785.57;1711302;83;22021;-67
2022/08/25 01:34:31;;;;;;;17.87;4.47;;;;;;;16.70;77.04;99786.73;1715137;81;20911;-67
2022/08/25 01:37:01;;;;;;;12.23;4.12;;;;;;;16.70;77.09;99793.66;1713796;82;20923;-68
2022/08/25 01:39:29;;;;;;;21.52;5.00;;;;;;;16.68;77.10;99787.08;1663592;84;20992;-67
2022/08/25 01:42:19;;;;;;;8.83;4.35;;;;;;;16.69;77.12;99783.73;1714152;81;21418;-68
2022/08/25 01:44:47;;;;;;;13.35;4.60;;;;;;;16.68;77.01;99784.88;1752209;81;21123;-68
2022/08/25 01:47:17;;;;;;;11.85;4.20;;;;;;;16.65;76.87;99786.97;1741472;81;20986;-68
2022/08/25 01:49:47;;;;;;;10.05;4.42;;;;;;;16.62;76.97;99787.06;1717480;81;20908;-68
2022/08/25 01:52:48;;;;;;;17.00;5.03;;;;;;;16.60;76.95;99789.95;1659020;84;21013;-68
2022/08/25 01:55:18;;;;;;;15.35;4.45;;;;;;;16.57;76.85;99790.07;1673957;84;21011;-67
2022/08/25 01:57:45;;;;;;;16.45;4.83;;;;;;;16.54;76.86;99793.55;1693460;83;21166;-68
2022/08/25 02:00:14;;;;;;;15.98;5.03;;;;;;;16.51;77.10;99793.66;1712925;82;20995;-68
2022/08/25 02:02:45;;;;;;;14.53;4.50;;;;;;;16.49;77.35;99796.55;1715329;82;20959;-68
2022/08/25 02:05:13;;;;;;;13.85;4.87;;;;;;;16.44;77.29;99792.05;1716903;82;20993;-68
2022/08/25 02:07:43;;;;;;;14.98;5.22;;;;;;;16.36;77.52;99788.84;1715288;82;20979;-68
2022/08/25 02:10:14;;;;;;;16.40;4.95;;;;;;;16.29;77.56;99787.80;1711475;83;21267;-68
2022/08/25 02:12:46;;;;;;;;;;;;;;;16.24;78.08;99790.23;1681058;84;21093;-68
2022/08/25 02:15:15;;;;;;;15.00;4.30;;;;;;;16.21;78.20;99792.30;1711315;82;20103;-67
2022/08/25 02:17:45;;;;;;;13.30;5.33;;;;;;;16.18;78.21;99787.46;1713842;82;21060;-68
2022/08/25 02:20:16;;;;;;;16.35;5.42;;;;;;;16.16;78.51;99790.61;1713142;82;21055;-68
2022/08/25 02:22:47;;;;;;;14.00;4.95;;;;;;;16.13;78.53;99786.34;1703270;81;21015;-68
2022/08/25 02:25:19;;;;;;;20.45;5.50;;;;;;;16.11;78.58;99788.65;1715379;82;20974;-68
2022/08/25 02:27:51;;;;;;;13.35;5.12;;;;;;;16.08;78.70;99790.15;1722699;81;21003;-68
2022/08/25 02:30:20;;;;;;;14.05;5.00;;;;;;;16.06;78.70;99788.88;1712725;82;20967;-68
2022/08/25 02:32:53;;;;;;;14.78;5.28;;;;;;;16.06;78.89;99790.27;1720610;82;20907;-68
2022/08/25 02:35:19;;;;;;;17.65;5.20;;;;;;;16.05;78.88;99792.23;1733644;81;21295;-68
2022/08/25 02:37:52;;;;;;;14.43;4.50;;;;;;;16.06;78.82;99788.88;1733576;81;21026;-68
2022/08/25 02:40:22;;;;;;;14.23;4.95;;;;;;;16.05;78.82;99792.80;1759181;80;20911;-68
2022/08/25 02:42:56;;;;;;;11.68;4.58;;;;;;;16.03;78.81;99788.99;1753275;80;21033;-68
2022/08/25 02:45:27;;;;;;;13.90;5.20;;;;;;;15.99;78.92;99784.49;1755365;80;21019;-67
2022/08/25 02:48:02;;;;;;;12.90;4.53;;;;;;;15.97;78.83;99789.56;1741049;80;20903;-68
2022/08/25 02:50:31;;;;;;;12.20;4.05;;;;;;;15.95;78.92;99786.34;1768454;80;20864;-68
2022/08/25 02:53:00;;;;;;;15.88;5.25;;;;;;;15.95;79.04;99785.76;1746845;81;20971;-68
2022/08/25 02:55:28;;;;;;;12.78;4.65;;;;;;;15.95;79.14;99787.72;1744319;81;20950;-67
2022/08/25 02:57:55;;;;;;;10.50;4.30;;;;;;;15.92;78.94;99791.98;1751593;81;21038;-68
2022/08/25 03:00:25;;;;;;;9.98;4.47;;;;;;;15.92;78.88;99788.41;1751572;81;21167;-68
2022/08/25 03:02:53;;;;;;;14.45;4.40;;;;;;;15.93;78.82;99788.64;1743508;81;21022;-68
2022/08/25 03:05:26;;;;;;;10.50;4.37;;;;;;;15.93;78.82;99791.41;1724043;81;20948;-68
2022/08/25 03:07:59;;;;;;;11.68;4.30;;;;;;;15.92;78.70;99790.61;1682658;83;21057;-68
2022/08/25 03:10:27;;;;;;;10.85;3.92;;;;;;;15.94;78.58;99792.45;1701336;82;20995;-68
2022/08/25 03:12:56;;;;;;;14.68;4.50;;;;;;;15.97;78.31;99793.72;1762387;80;21366;-69
2022/08/25 03:15:29;;;;;;;18.82;4.10;;;;;;;16.00;78.17;99800.76;1755544;80;21029;-68
2022/08/25 03:17:56;;;;;;;22.22;4.58;;;;;;;16.05;77.88;99799.15;1765350;80;21385;-68
2022/08/25 03:20:34;;;;;;;12.20;4.25;;;;;;;16.08;77.65;99789.34;1771135;80;20872;-68
2022/08/25 03:23:01;;;;;;;18.10;4.50;;;;;;;16.12;77.57;99797.99;1758974;80;21086;-66
2022/08/25 03:28:20;;;;;;;20.08;4.40;;;;;;;16.17;77.45;99792.80;1756846;80;21364;-67
2022/08/25 03:30:48;;;;;;;;;;;;;;;16.18;77.47;99795.77;1746482;80;21443;-66
2022/08/25 03:33:20;;;;;;;15.88;4.42;;;;;;;16.19;77.46;99793.23;1758084;79;20780;-66
2022/08/25 03:35:46;;;;;;;19.27;4.78;;;;;;;16.20;77.40;99790.69;1752395;81;21486;-67
2022/08/25 03:38:19;;;;;;;12.70;4.03;;;;;;;16.24;77.30;99792.19;1713845;82;21125;-66
2022/08/25 03:40:48;;;;;;;9.35;4.17;;;;;;;16.26;76.93;99789.30;1658355;85;21451;-67
2022/08/25 03:43:19;;;;;;;12.40;4.47;;;;;;;16.33;76.83;99792.30;1687561;82;20983;-68
2022/08/25 03:45:47;;;;;;;13.72;5.25;;;;;;;16.39;76.82;99788.72;1715130;82;20931;-69
2022/08/25 03:48:15;;;;;;;20.92;4.67;;;;;;;16.43;76.59;99789.63;1734439;81;20928;-67
2022/08/25 03:50:47;;;;;;;30.77;6.60;;;;;;;16.48;76.45;99783.85;1729323;80;21234;-74
2022/08/25 03:53:13;;;;;;;26.82;9.70;;;;;;;16.55;76.31;99787.42;1690488;82;21064;-69
2022/08/25 03:55:45;;;;;;;34.40;13.72;;;;;;;16.60;75.94;99785.80;1711669;83;21065;-70
2022/08/25 03:58:13;;;;;;;50.40;18.90;;;;;;;16.65;75.82;99775.88;1711336;83;20903;-69
2022/08/25 04:00:47;;;;;;;49.05;18.32;;;;;;;16.69;75.68;99783.14;1711622;82;20863;-70
2022/08/25 04:03:22;;;;;;;54.15;15.88;;;;;;;16.75;75.51;99780.94;1713089;83;21195;-72
2022/08/25 04:05:52;;;;;;;26.52;10.95;;;;;;;16.83;75.60;99779.95;1659995;85;21062;-72
2022/08/25 04:08:18;;;;;;;31.68;8.98;;;;;;;16.89;75.51;99781.33;1696578;82;20908;-72
2022/08/25 04:10:54;;;;;;;19.07;7.03;;;;;;;16.95;75.30;99774.37;1687176;84;21014;-74
2022/08/25 04:13:22;;;;;;;23.30;6.33;;;;;;;17.02;75.21;99776.55;1692057;82;20936;-72
2022/08/25 04:15:51;;;;;;;16.77;4.72;;;;;;;17.08;75.04;99773.74;1699935;83;21146;-71
2022/08/25 04:18:21;;;;;;;11.80;4.72;;;;;;;17.15;74.51;99771.17;1697134;82;21006;-72
2022/08/25 04:20:49;;;;;;;13.88;4.75;;;;;;;17.23;74.02;99770.20;1727661;80;20922;-72
2022/08/25 04:23:21;;;;;;;15.93;4.70;;;;;;;17.31;74.02;99765.66;1708067;82;28229;-72
2022/08/25 04:25:50;;;;;;;17.17;5.20;;;;;;;17.39;73.89;99761.88;1702616;82;20950;-73
2022/08/25 04:28:22;;;;;;;14.83;4.75;;;;;;;17.48;73.61;99762.52;1700103;81;21326;-74
2022/08/25 04:30:50;;;;;;;20.82;5.40;;;;;;;17.57;73.09;99760.97;1696549;82;21022;-74
2022/08/25 04:33:20;;;;;;;18.17;5.45;;;;;;;17.65;72.83;99755.83;1713383;81;20876;-73
2022/08/25 04:35:52;;;;;;;12.35;5.37;;;;;;;17.74;72.83;99757.29;1713175;82;20884;-73
2022/08/25 04:38:26;;;;;;;16.62;5.37;;;;;;;17.83;72.65;99754.33;1716943;82;21015;-75
2022/08/25 04:40:58;;;;;;;16.02;5.08;;;;;;;17.93;72.61;99759.89;1711805;83;21247;-79
2022/08/25 04:43:32;;;;;;;21.23;6.55;;;;;;;18.02;72.84;99756.35;1652883;85;21477;-80
2022/08/25 04:46:11;;;;;;;15.50;5.92;;;;;;;18.11;72.50;99751.41;1717585;81;21441;-72
2022/08/25 04:48:40;;;;;;;20.50;6.85;;;;;;;18.20;71.98;99751.22;1702493;81;21006;-72
2022/08/25 04:51:13;;;;;;;15.75;5.70;;;;;;;18.29;71.87;99759.58;1715619;80;21601;-73
2022/08/25 04:53:42;;;;;;;12.82;5.65;;;;;;;18.39;70.90;99758.22;1714350;82;21077;-73
2022/08/25 04:56:16;;;;;;;16.25;5.37;;;;;;;18.46;70.28;99755.01;1714189;82;21458;-73
2022/08/25 04:58:49;;;;;;;11.43;4.80;;;;;;;18.55;70.34;99750.60;1714759;81;21507;-75
2022/08/25 05:01:24;;;;;;;18.23;5.78;;;;;;;18.65;69.83;99752.03;1718322;82;20999;-73
2022/08/25 05:03:56;;;;;;;16.70;5.33;;;;;;;18.73;69.77;99753.80;1745843;80;21000;-71
2022/08/25 05:06:27;;;;;;;15.25;5.10;;;;;;;18.83;69.58;99753.80;1737599;80;21158;-73
2022/08/25 05:08:58;;;;;;;14.58;5.10;;;;;;;18.92;69.02;99741.29;1720423;82;20928;-72
2022/08/25 05:11:35;;;;;;;19.65;5.95;;;;;;;19.00;69.79;99740.84;1730786;82;21473;-69
2022/08/25 05:14:10;;;;;;;19.35;5.65;;;;;;;19.11;69.15;99746.00;1720159;82;20963;-71
2022/08/25 05:16:35;;;;;;;;;;;;;;;19.22;68.93;99743.43;1719999;82;20918;-71
2022/08/25 05:19:10;;;;;;;13.25;5.42;;;;;;;19.33;68.58;99741.66;1713334;82;20771;-80
2022/08/25 05:21:42;;;;;;;16.27;5.53;;;;;;;19.44;68.29;99738.48;1725514;81;21065;-77
2022/08/25 05:24:13;;;;;;;17.37;5.62;;;;;;;19.54;67.94;99739.28;1707877;82;20951;-76
2022/08/25 05:26:44;;;;;;;17.52;5.65;;;;;;;19.65;67.40;99744.42;1723455;81;21022;-75
2022/08/25 05:29:16;;;;;;;20.77;5.20;;;;;;;19.74;67.41;99738.02;1726047;80;20987;-75
2022/08/25 05:31:48;;;;;;;19.17;5.50;;;;;;;19.87;67.29;99739.22;1704132;82;20939;-73
2022/08/25 05:34:20;;;;;;;17.50;5.90;;;;;;;19.96;66.66;99733.60;1719051;81;21525;-73
2022/08/25 05:36:51;;;;;;;13.85;5.55;;;;;;;20.08;66.14;99740.95;1720295;81;20904;-71
2022/08/25 05:39:22;;;;;;;26.80;6.78;;;;;;;20.20;66.37;99739.34;1726738;81;20923;-71
2022/08/25 05:41:54;;;;;;;24.00;6.47;;;;;;;20.33;65.62;99742.10;1735904;80;20992;-73
2022/08/25 05:44:23;;;;;;;13.10;6.08;;;;;;;20.48;65.83;99742.34;1748436;80;21185;-73
2022/08/25 05:46:52;;;;;;;19.02;5.97;;;;;;;20.62;65.77;99740.55;1745088;80;21019;-71
2022/08/25 05:49:19;;;;;;;20.75;6.25;;;;;;;20.76;64.07;99737.95;1751215;80;20891;-74
2022/08/25 05:51:47;;;;;;;19.40;5.10;;;;;;;20.88;63.66;99731.88;1759137;80;20885;-79
2022/08/25 05:54:16;;;;;;;19.05;6.87;;;;;;;20.98;63.07;99734.80;1755035;80;20986;-72
2022/08/25 05:56:45;;;;;;;19.10;5.87;;;;;;;21.12;63.36;99736.14;1752488;80;21098;-75
2022/08/25 05:59:12;;;;;;;12.63;5.75;;;;;;;21.25;63.48;99732.73;1753172;80;21046;-77
2022/08/25 06:04:27;;;;;;;11.55;6.17;;;;;;;21.57;62.23;99729.43;1761577;80;20971;-72
2022/08/25 06:06:55;;;;;;;13.70;6.28;;;;;;;21.77;62.80;99735.59;1758948;80;21082;-69
2022/08/25 06:09:29;;;;;;;17.23;6.00;;;;;;;21.91;61.37;99735.72;1660528;82;21518;-69
2022/08/25 06:12:06;;;;;;;15.23;5.83;;;;;;;22.05;60.66;99734.43;1720585;82;21039;-70
2022/08/25 06:14:36;;;;;;;15.10;5.90;;;;;;;22.18;59.48;99732.92;1721341;81;20967;-70
2022/08/25 06:17:16;;;;;;;14.43;5.70;;;;;;;22.31;59.56;99737.61;1726153;82;47786;-70
2022/08/25 06:19:47;;;;;;;13.20;5.40;;;;;;;22.45;58.01;99731.30;1716787;82;21054;-70
2022/08/25 06:22:14;;;;;;;10.32;5.53;;;;;;;22.58;57.75;99736.73;1723205;81;21270;-69
2022/08/25 06:24:44;;;;;;;16.80;6.10;;;;;;;22.69;57.10;99732.00;1723574;82;20939;-69
2022/08/25 06:27:18;;;;;;;19.27;6.17;;;;;;;22.80;57.51;99733.48;1730941;82;21516;-68
2022/08/25 06:29:53;;;;;;;16.48;6.17;;;;;;;22.94;56.69;99741.34;1724787;81;20953;-79
2022/08/25 06:32:22;;;;;;;22.40;6.72;;;;;;;23.06;55.99;99735.98;1723202;82;21430;-76
2022/08/25 06:34:57;;;;;;;15.28;5.87;;;;;;;23.19;55.85;99732.98;1716255;82;21833;-78
2022/08/25 06:37:28;;;;;;;16.25;6.17;;;;;;;23.32;55.65;99734.22;1724484;82;21165;-70
2022/08/25 06:39:55;;;;;;;12.53;6.85;;;;;;;23.48;55.73;99735.25;1722082;83;21009;-69
2022/08/25 06:42:26;;;;;;;16.42;5.95;;;;;;;23.65;54.93;99740.71;1726255;82;20951;-87
2022/08/25 06:44:56;;;;;;;13.32;6.35;;;;;;;23.81;54.88;99739.69;1723042;82;21003;-77
2022/08/25 06:47:26;;;;;;;23.18;6.17;;;;;;;23.98;52.72;99738.09;1704518;83;21009;-79
2022/08/25 06:49:53;;;;;;;14.30;6.62;;;;;;;24.11;52.31;99739.88;1721367;82;21054;-77
2022/08/25 06:52:25;;;;;;;10.08;5.05;;;;;;;24.25;52.20;99741.27;1729523;81;21434;-71
2022/08/25 06:54:53;;;;;;;15.80;5.47;;;;;;;24.40;52.68;99739.24;1704373;82;21530;-71
2022/08/25 06:57:20;;;;;;;9.80;5.17;;;;;;;24.53;51.79;99731.99;1725086;82;21015;-75
2022/08/25 06:59:49;;;;;;;10.93;5.08;;;;;;;24.68;51.06;99741.37;1727727;82;21655;-75
2022/08/25 07:02:19;;;;;;;17.45;5.72;;;;;;;24.83;51.23;99735.70;1721150;82;21008;-74
2022/08/25 07:04:48;;;;;;;17.82;5.37;;;;;;;24.97;50.82;99739.25;1732364;82;20996;-79
2022/08/25 07:07:15;;;;;;;17.02;5.67;;;;;;;25.16;50.20;99736.55;1713393;82;21061;-73
2022/08/25 07:09:47;;;;;;;47.48;19.15;;;;;;;25.31;49.68;99741.49;1720261;81;21156;-73
2022/08/25 07:12:25;;;;;;;43.02;19.10;;;;;;;25.44;48.00;99729.94;1729079;81;21402;-83
2022/08/25 07:14:51;;;;;;;42.05;19.85;;;;;;;25.60;46.50;99733.04;1751663;80;20916;-70
2022/08/25 07:17:23;;;;;;;16.70;7.95;;;;;;;25.77;46.34;99734.75;1778862;79;20943;-70
2022/08/25 07:19:51;;;;;;;27.87;10.45;;;;;;;25.95;45.81;99731.19;1763335;80;20990;-70
2022/08/25 07:22:22;;;;;;;30.37;10.90;;;;;;;26.09;44.30;99734.45;1739977;80;21014;-70
2022/08/25 07:24:55;;;;;;;24.27;7.58;;;;;;;26.19;44.78;99724.51;1761489;80;21162;-70
2022/08/25 07:27:25;;;;;;;19.15;6.15;;;;;;;26.31;42.98;99729.64;1760754;80;21012;-69
2022/08/25 07:29:58;;;;;;;13.35;5.20;;;;;;;26.41;44.09;99719.49;1755216;81;20995;-70
2022/08/25 07:32:32;;;;;;;18.00;5.17;;;;;;;26.57;43.96;99721.73;1751402;79;21151;-72
2022/08/25 07:35:17;;;;;;;17.48;5.22;;;;;;;26.75;43.86;99715.86;1756603;79;21049;-78
2022/08/25 07:37:48;;;;;;;11.85;4.58;;;;;;;26.93;43.61;99720.66;1757205;79;21154;-79
2022/08/25 07:40:24;;;;;;;14.80;5.30;;;;;;;27.10;42.24;99718.25;1737524;81;20959;-79
2022/08/25 07:42:57;;;;;;;17.30;4.92;;;;;;;27.27;42.23;99710.74;1759355;79;21003;-81
2022/08/25 07:45:30;;;;;;;10.48;4.55;;;;;;;27.43;41.57;99706.68;1767611;80;20928;-79
2022/08/25 07:48:02;;;;;;;11.38;4.12;;;;;;;27.59;42.12;99706.86;1739149;80;20980;-76
2022/08/25 07:50:32;;;;;;;15.30;4.37;;;;;;;27.80;41.50;99698.63;1758329;79;21486;-76
2022/08/25 07:53:01;;;;;;;13.08;4.15;;;;;;;28.01;39.46;99696.06;1760908;80;20983;-74
2022/08/25 07:55:29;;;;;;;12.45;4.83;;;;;;;28.20;38.99;99693.89;1759459;79;20924;-74
2022/08/25 07:58:05;;;;;;;14.58;4.58;;;;;;;28.47;38.88;99687.34;1752415;79;21045;-74
2022/08/25 08:00:40;;;;;;;15.15;3.87;;;;;;;28.81;38.22;99690.67;1761117;79;20918;-76
2022/08/25 08:03:10;;;;;;;11.15;4.33;;;;;;;29.22;37.38;99684.52;1730971;80;21133;-77
2022/08/25 08:05:40;;;;;;;11.50;3.15;;;;;;;29.64;35.97;99681.11;1689954;83;21080;-74
2022/08/25 08:08:11;;;;;;;16.35;3.90;;;;;;;29.98;32.74;99679.23;1711238;83;21422;-84
2022/08/25 08:10:42;;;;;;;6.87;3.42;;;;;;;30.19;33.30;99678.67;1681818;83;21459;-87
2022/08/25 08:13:13;;;;;;;7.62;3.30;;;;;;;30.48;33.07;99673.02;1710532;82;21656;-91
2022/08/25 08:15:49;;;;;;;12.80;3.40;;;;;;;30.74;32.75;99680.34;1730109;81;21782;-84
2022/08/25 08:18:22;;;;;;;12.68;3.83;;;;;;;31.02;32.01;99677.91;1745087;81;20907;-82
2022/08/25 08:20:48;;;;;;;11.48;3.95;;;;;;;31.20;30.92;99671.06;1720833;80;21054;-85
2022/08/25 08:23:26;;;;;;;11.33;3.60;;;;;;;31.40;32.28;99671.63;1712556;81;20950;-78
2022/08/25 08:25:50;;;;;;;8.73;2.95;;;;;;;31.70;30.78;99673.11;1746419;80;20923;-85
2022/08/25 08:28:26;;;;;;;18.10;3.33;;;;;;;31.92;28.44;99670.94;1727681;81;22251;-79
2022/08/25 08:30:49;;;;;;;10.15;3.17;;;;;;;31.93;29.52;99665.42;1720162;81;20888;-72
2022/08/25 08:33:21;;;;;;;9.15;3.12;;;;;;;32.10;29.42;99669.06;1727189;80;21446;-73
2022/08/25 08:36:03;;;;;;;11.73;3.15;;;;;;;32.20;27.36;99670.56;1727604;80;20973;-72
2022/08/25 08:38:32;;;;;;;12.68;3.00;;;;;;;32.13;28.01;99666.73;1755263;80;21045;-75
2022/08/25 08:44:25;;;;;;;12.23;3.30;;;;;;;32.43;27.47;99659.56;1765627;79;20891;-72
2022/08/25 08:47:03;;;;;;;5.33;2.40;;;;;;;32.65;27.26;99651.66;1646235;86;21006;-74
2022/08/25 08:50:26;;;;;;;7.92;2.02;;;;;;;32.75;26.15;99648.44;1648030;84;21012;-73
2022/08/25 08:53:27;;;;;;;6.40;2.40;;;;;;;32.93;26.69;99646.96;1770725;79;21476;-73
2022/08/25 08:55:59;;;;;;;5.05;2.20;;;;;;;33.12;25.37;99644.34;1748661;80;21245;-81
2022/08/25 08:58:35;;;;;;;7.97;2.35;;;;;;;33.21;25.54;99645.01;1765813;80;21979;-75
2022/08/25 09:01:09;;;;;;;9.83;2.80;;;;;;;33.39;26.17;99645.91;1754452;80;21017;-85
2022/08/25 09:03:58;;;;;;;10.82;2.67;;;;;;;33.62;25.29;99652.27;1749053;79;21415;-74
2022/08/25 09:06:42;;;;;;;11.63;2.87;;;;;;;33.64;24.54;99651.16;1760713;79;20949;-71
2022/08/25 09:09:12;;;;;;;16.70;2.37;;;;;;;33.54;22.88;99641.81;1755362;80;21281;-75
2022/08/25 09:12:04;;;;;;;6.83;2.37;;;;;;;33.23;23.59;99643.91;1760250;80;20921;-76
2022/08/25 09:14:55;;;;;;;9.75;2.33;;;;;;;33.10;23.93;99642.59;1726726;80;20939;-74
2022/08/25 09:17:52;;;;;;;11.00;2.37;;;;;;;33.16;24.86;99636.45;1719052;81;21671;-77
2022/08/25 09:20:56;;;;;;;8.03;2.45;;;;;;;33.37;24.82;99639.89;1769309;80;20846;-77
2022/08/25 09:24:03;;;;;;;11.45;2.40;;;;;;;33.53;23.85;99644.49;1736262;79;20969;-73
2022/08/25 09:26:47;;;;;;;12.65;2.50;;;;;;;33.49;23.62;99645.30;1764945;80;20991;-70
2022/08/25 09:29:25;;;;;;;6.17;3.30;;;;;;;33.45;23.72;99636.12;1743839;81;21073;-74
2022/08/25 09:31:55;;;;;;;22.37;3.25;;;;;;;33.53;24.93;99640.22;1753896;80;20962;-79
2022/08/25 09:34:26;;;;;;;8.33;2.62;;;;;;;33.63;23.64;99633.92;1750480;80;20957;-74
2022/08/25 09:36:56;;;;;;;10.58;2.22;;;;;;;33.61;24.11;99640.72;1773414;80;21165;-74
2022/08/25 09:39:29;;;;;;;6.90;2.25;;;;;;;33.71;24.59;99633.78;1742261;81;20928;-74
2022/08/25 09:42:00;;;;;;;8.60;2.70;;;;;;;33.90;24.00;99634.63;1755674;80;20926;-76
2022/08/25 09:44:43;;;;;;;9.38;2.65;;;;;;;33.86;23.50;99629.09;1743642;80;20855;-80
2022/08/25 09:47:28;;;;;;;13.50;2.77;;;;;;;33.86;23.64;99629.09;1696738;82;21625;-78
2022/08/25 09:50:00;;;;;;;10.75;2.58;;;;;;;33.82;23.77;99635.57;1726440;81;21180;-75
2022/08/25 09:52:36;;;;;;;15.65;2.30;;;;;;;33.87;23.03;99627.83;1732321;80;20878;-72
2022/08/25 09:55:14;;;;;;;9.45;2.35;;;;;;;33.90;23.70;99622.61;1689113;83;20956;-72
2022/08/25 09:57:49;;;;;;;11.85;2.67;;;;;;;33.95;23.71;99619.77;1752035;80;20949;-73
2022/08/25 10:00:32;;;;;;;6.62;2.27;;;;;;;34.06;22.96;99615.19;1757884;79;20867;-72
2022/08/25 10:03:22;;;;;;;7.22;1.90;;;;;;;34.13;22.73;99616.89;1754577;79;21854;-70
2022/08/25 10:05:57;;;;;;;11.38;2.75;;;;;;;34.21;21.79;99620.22;1756582;79;21130;-74
2022/08/25 10:08:35;;;;;;;8.55;2.62;;;;;;;34.24;23.24;99616.42;1760416;79;20981;-70
2022/08/25 10:11:07;;;;;;;10.63;2.60;;;;;;;34.36;23.56;99610.58;1759400;80;20889;-71
2022/08/25 10:13:47;;;;;;;10.00;2.45;;;;;;;34.55;23.11;99610.55;1750965;80;20855;-75
2022/08/25 10:16:28;;;;;;;8.93;2.72;;;;;;;34.61;23.12;99607.21;1761457;79;21271;-71
2022/08/25 10:19:27;;;;;;;13.48;2.70;;;;;;;34.59;22.76;99600.56;1745061;80;20970;-70
2022/08/25 10:22:11;;;;;;;14.13;2.30;;;;;;;34.60;23.15;99599.93;1769999;80;20962;-71
2022/08/25 10:24:39;;;;;;;5.55;1.82;;;;;;;34.72;22.44;99598.92;1754561;79;20977;-70
2022/08/25 10:27:18;;;;;;;8.25;2.70;;;;;;;34.90;21.63;99598.89;1743752;80;20993;-70
2022/08/25 10:30:19;;;;;;;8.60;1.87;;;;;;;35.06;21.81;99597.72;1752118;80;21461;-74
2022/08/25 10:33:03;;;;;;;8.98;2.15;;;;;;;35.08;20.89;99602.30;1747342;80;20929;-69
2022/08/25 10:35:36;;;;;;;12.82;1.82;;;;;;;35.00;20.35;99602.50;1747796;79;20894;-68
2022/08/25 10:38:37;;;;;;;10.45;2.30;;;;;;;35.03;21.65;99604.39;1754181;80;21072;-68
2022/08/25 10:41:32;;;;;;;8.88;1.98;;;;;;;35.03;21.17;99600.11;1726105;82;21020;-68
2022/08/25 10:48:11;;;;;;;7.22;2.02;;;;;;;35.26;21.29;99606.47;1697602;83;21569;-72
2022/08/25 10:50:57;;;;;;;16.65;2.62;;;;;;;35.35;20.85;99597.10;1741965;81;21660;-70
2022/08/25 10:54:06;;;;;;;10.63;2.15;;;;;;;35.22;21.53;99595.90;1735512;82;20999;-70
2022/08/25 10:56:41;;;;;;;17.35;2.70;;;;;;;35.29;20.26;99585.53;1742090;81;20991;-71
2022/08/25 10:59:30;;;;;;;9.70;2.00;;;;;;;35.31;19.97;99590.14;1729879;81;21314;-71
2022/08/25 11:02:22;;;;;;;5.50;1.95;;;;;;;35.34;20.39;99589.17;1727611;82;21411;-71
2022/08/25 11:04:54;;;;;;;4.95;1.55;;;;;;;35.42;19.97;99582.48;1742548;81;21068;-72
2022/08/25 11:07:37;;;;;;;3.12;1.67;;;;;;;35.39;20.07;99584.88;1736808;82;21581;-69
2022/08/25 11:10:09;;;;;;;4.05;1.90;;;;;;;35.33;19.43;99581.89;1741033;81;21619;-68
2022/08/25 11:12:46;;;;;;;7.72;2.00;;;;;;;35.27;19.77;99579.52;1737972;81;21485;-75
2022/08/25 11:15:30;;;;;;;11.63;1.95;;;;;;;35.29;20.76;99571.26;1727061;81;21003;-74
2022/08/25 11:18:04;;;;;;;5.42;1.92;;;;;;;35.51;20.30;99574.49;1726789;82;20966;-70
2022/08/25 11:20:39;;;;;;;4.62;1.87;;;;;;;35.74;19.90;99567.98;1667061;84;21016;-72
2022/08/25 11:23:46;;;;;;;6.45;2.47;;;;;;;35.66;18.56;99570.42;1727637;81;21007;-71
2022/08/25 11:26:14;;;;;;;5.28;2.42;;;;;;;35.37;20.57;99568.87;1733556;80;21249;-73
2022/08/25 11:28:58;;;;;;;7.87;1.80;;;;;;;35.18;19.93;99558.20;1671295;82;20963;-72
2022/08/25 11:31:24;;;;;;;11.30;2.33;;;;;;;35.14;20.02;99555.37;1702000;82;20926;-73
2022/08/25 11:33:53;;;;;;;9.63;2.08;;;;;;;35.01;20.95;99555.59;1696195;82;21705;-73
2022/08/25 11:36:34;;;;;;;6.60;2.08;;;;;;;35.09;20.22;99551.91;1718744;81;21592;-70
2022/08/25 11:39:29;;;;;;;;;;;;;;;35.24;21.55;99559.75;1715388;82;21276;-71
2022/08/25 11:42:11;;;;;;;5.62;2.27;;;;;;;35.40;21.15;99557.91;1721523;81;20095;-71
2022/08/25 11:45:07;;;;;;;7.00;2.10;;;;;;;35.52;20.65;99548.95;1653308;83;20874;-72
2022/08/25 11:47:44;;;;;;;7.22;2.60;;;;;;;35.54;20.39;99550.69;1736286;81;20911;-72
2022/08/25 11:50:34;;;;;;;9.00;2.33;;;;;;;35.51;20.86;99551.02;1715002;82;21570;-71
2022/08/25 11:53:34;;;;;;;7.03;2.20;;;;;;;35.52;20.46;99549.74;1717415;82;21871;-71
2022/08/25 11:56:08;;;;;;;5.30;2.20;;;;;;;35.56;20.53;99545.28;1716008;81;20907;-69
2022/08/25 11:58:48;;;;;;;3.15;2.20;;;;;;;35.59;20.05;99537.95;1722295;81;20988;-70
2022/08/25 12:01:43;;;;;;;3.95;1.98;;;;;;;35.68;20.26;99533.60;1690199;83;21557;-70
2022/08/25 12:04:37;;;;;;;3.00;2.20;;;;;;;35.74;20.12;99532.29;1713704;82;21042;-71
2022/08/25 12:07:13;;;;;;;6.00;2.40;;;;;;;35.86;20.88;99528.37;1717422;82;21482;-71
2022/08/25 12:09:55;;;;;;;10.75;2.83;;;;;;;35.95;20.53;99518.30;1716200;82;20924;-69
2022/08/25 12:12:46;;;;;;;;;;;;;;;35.88;19.71;99514.40;1735570;81;20895;-71